FYWW

Windhoek, Town MET Airport

Windhoek, Namibia
METAR FYWW 191600Z AUTO 18004KT //// // ////// 32/05 Q1019
Observed Flight Rules
Jan-19 @ 16:00 UTC (41 minutes ago)
Wind
180° at 4 knots
Temperatures Readings
Current 32°C / 90°F
Dewpoint 5°C / 41°F
Humidity 18%
Altimeter 30.09" Hg
Pressure 1018.92 hPa
Elevation 1725
METAR FYWW 191600Z AUTO 18004KT //// // ////// 32/05 Q1019
Observed Flight Rules
Jan-19 @ 16:00 UTC
(41 minutes ago)
Wind
180° at 4 knots
Temperature Dewpoint
32°C / 90°F 5°C / 41°F
Humidity Altimeter Pressure
18% 30.09" Hg 1018.92 hPa